sensor_id;sensor_type;location;lat;lon;timestamp;P1;durP1;ratioP1;P2;durP2;ratioP2
19754;SDS011;10036;47.812;9.274;2022-11-20T00:01:03;5.82;;;3.80;;
19754;SDS011;10036;47.812;9.274;2022-11-20T00:03:31;5.85;;;3.97;;
19754;SDS011;10036;47.812;9.274;2022-11-20T00:06:00;5.70;;;4.10;;
19754;SDS011;10036;47.812;9.274;2022-11-20T00:08:27;6.80;;;4.35;;
19754;SDS011;10036;47.812;9.274;2022-11-20T00:10:54;5.80;;;4.10;;
19754;SDS011;10036;47.812;9.274;2022-11-20T00:13:21;5.22;;;4.32;;
19754;SDS011;10036;47.812;9.274;2022-11-20T00:15:48;5.72;;;4.53;;
19754;SDS011;10036;47.812;9.274;2022-11-20T00:18:22;8.20;;;4.93;;
19754;SDS011;10036;47.812;9.274;2022-11-20T00:20:49;7.60;;;5.32;;
19754;SDS011;10036;47.812;9.274;2022-11-20T00:23:17;7.97;;;5.40;;
19754;SDS011;10036;47.812;9.274;2022-11-20T00:25:44;6.88;;;4.80;;
19754;SDS011;10036;47.812;9.274;2022-11-20T00:28:11;6.95;;;4.97;;
19754;SDS011;10036;47.812;9.274;2022-11-20T00:30:38;5.65;;;4.45;;
19754;SDS011;10036;47.812;9.274;2022-11-20T00:33:05;5.82;;;4.55;;
19754;SDS011;10036;47.812;9.274;2022-11-20T00:35:32;7.78;;;4.88;;
19754;SDS011;10036;47.812;9.274;2022-11-20T00:37:58;4.95;;;4.47;;
19754;SDS011;10036;47.812;9.274;2022-11-20T00:40:27;5.85;;;4.60;;
19754;SDS011;10036;47.812;9.274;2022-11-20T00:42:54;4.45;;;3.88;;
19754;SDS011;10036;47.812;9.274;2022-11-20T00:48:06;5.35;;;4.25;;
19754;SDS011;10036;47.812;9.274;2022-11-20T00:50:33;8.20;;;4.40;;
19754;SDS011;10036;47.812;9.274;2022-11-20T00:53:00;6.35;;;4.50;;
19754;SDS011;10036;47.812;9.274;2022-11-20T00:55:28;4.38;;;3.83;;
19754;SDS011;10036;47.812;9.274;2022-11-20T00:57:55;5.47;;;3.90;;
19754;SDS011;10036;47.812;9.274;2022-11-20T01:00:22;4.93;;;3.92;;
19754;SDS011;10036;47.812;9.274;2022-11-20T01:02:49;4.90;;;3.80;;
19754;SDS011;10036;47.812;9.274;2022-11-20T01:05:16;6.30;;;4.20;;
19754;SDS011;10036;47.812;9.274;2022-11-20T01:07:43;4.15;;;3.75;;
19754;SDS011;10036;47.812;9.274;2022-11-20T01:10:09;4.97;;;4.28;;
19754;SDS011;10036;47.812;9.274;2022-11-20T01:12:38;5.28;;;4.78;;
19754;SDS011;10036;47.812;9.274;2022-11-20T01:15:05;5.43;;;4.38;;
19754;SDS011;10036;47.812;9.274;2022-11-20T01:17:33;5.88;;;4.22;;
19754;SDS011;10036;47.812;9.274;2022-11-20T01:20:00;4.80;;;4.22;;
19754;SDS011;10036;47.812;9.274;2022-11-20T01:22:26;5.30;;;3.90;;
19754;SDS011;10036;47.812;9.274;2022-11-20T01:24:53;5.43;;;4.07;;
19754;SDS011;10036;47.812;9.274;2022-11-20T01:27:20;4.45;;;4.03;;
19754;SDS011;10036;47.812;9.274;2022-11-20T01:29:48;4.20;;;3.80;;
19754;SDS011;10036;47.812;9.274;2022-11-20T01:32:15;5.35;;;4.00;;
19754;SDS011;10036;47.812;9.274;2022-11-20T01:34:42;5.38;;;4.28;;
19754;SDS011;10036;47.812;9.274;2022-11-20T01:37:09;5.82;;;4.40;;
19754;SDS011;10036;47.812;9.274;2022-11-20T01:39:36;5.60;;;4.45;;
19754;SDS011;10036;47.812;9.274;2022-11-20T01:42:03;4.85;;;4.13;;
19754;SDS011;10036;47.812;9.274;2022-11-20T01:47:50;6.50;;;5.28;;
19754;SDS011;10036;47.812;9.274;2022-11-20T01:50:18;6.43;;;5.07;;
19754;SDS011;10036;47.812;9.274;2022-11-20T01:52:50;6.93;;;4.85;;
19754;SDS011;10036;47.812;9.274;2022-11-20T01:55:21;5.65;;;4.55;;
19754;SDS011;10036;47.812;9.274;2022-11-20T01:57:51;5.15;;;4.65;;
19754;SDS011;10036;47.812;9.274;2022-11-20T02:00:19;5.80;;;4.90;;
19754;SDS011;10036;47.812;9.274;2022-11-20T02:02:48;6.38;;;5.00;;
19754;SDS011;10036;47.812;9.274;2022-11-20T02:05:22;6.15;;;5.10;;
19754;SDS011;10036;47.812;9.274;2022-11-20T02:07:53;6.35;;;5.18;;
19754;SDS011;10036;47.812;9.274;2022-11-20T02:10:22;7.03;;;5.80;;
19754;SDS011;10036;47.812;9.274;2022-11-20T02:12:49;6.28;;;5.18;;
19754;SDS011;10036;47.812;9.274;2022-11-20T02:15:34;5.80;;;5.20;;
19754;SDS011;10036;47.812;9.274;2022-11-20T02:18:03;6.35;;;4.93;;
19754;SDS011;10036;47.812;9.274;2022-11-20T02:20:31;9.88;;;4.88;;
19754;SDS011;10036;47.812;9.274;2022-11-20T02:22:59;5.72;;;4.93;;
19754;SDS011;10036;47.812;9.274;2022-11-20T02:25:31;6.43;;;4.88;;
19754;SDS011;10036;47.812;9.274;2022-11-20T02:28:00;7.35;;;5.30;;
19754;SDS011;10036;47.812;9.274;2022-11-20T02:30:27;7.40;;;5.13;;
19754;SDS011;10036;47.812;9.274;2022-11-20T02:32:53;8.13;;;5.80;;
19754;SDS011;10036;47.812;9.274;2022-11-20T02:38:19;10.25;;;6.75;;
19754;SDS011;10036;47.812;9.274;2022-11-20T02:40:48;10.52;;;6.88;;
19754;SDS011;10036;47.812;9.274;2022-11-20T02:43:15;8.43;;;5.95;;
19754;SDS011;10036;47.812;9.274;2022-11-20T02:45:42;8.75;;;6.07;;
19754;SDS011;10036;47.812;9.274;2022-11-20T02:48:09;12.77;;;6.47;;
19754;SDS011;10036;47.812;9.274;2022-11-20T02:50:36;8.40;;;6.50;;
19754;SDS011;10036;47.812;9.274;2022-11-20T02:53:04;7.80;;;6.13;;
19754;SDS011;10036;47.812;9.274;2022-11-20T02:55:31;7.57;;;6.30;;
19754;SDS011;10036;47.812;9.274;2022-11-20T02:58:00;9.73;;;7.60;;
19754;SDS011;10036;47.812;9.274;2022-11-20T03:00:27;10.85;;;6.85;;
19754;SDS011;10036;47.812;9.274;2022-11-20T03:02:54;11.07;;;6.85;;
19754;SDS011;10036;47.812;9.274;2022-11-20T03:05:21;10.75;;;6.35;;
19754;SDS011;10036;47.812;9.274;2022-11-20T03:07:47;8.80;;;6.13;;
19754;SDS011;10036;47.812;9.274;2022-11-20T03:10:14;9.45;;;6.80;;
19754;SDS011;10036;47.812;9.274;2022-11-20T03:12:41;8.90;;;5.75;;
19754;SDS011;10036;47.812;9.274;2022-11-20T03:15:10;8.40;;;6.25;;
19754;SDS011;10036;47.812;9.274;2022-11-20T03:17:37;8.25;;;6.07;;
19754;SDS011;10036;47.812;9.274;2022-11-20T03:20:04;11.20;;;6.40;;
19754;SDS011;10036;47.812;9.274;2022-11-20T03:22:32;8.43;;;5.75;;
19754;SDS011;10036;47.812;9.274;2022-11-20T03:24:59;7.72;;;6.05;;
19754;SDS011;10036;47.812;9.274;2022-11-20T03:27:26;7.32;;;6.00;;
19754;SDS011;10036;47.812;9.274;2022-11-20T03:29:53;9.65;;;7.60;;
19754;SDS011;10036;47.812;9.274;2022-11-20T03:32:21;8.95;;;6.40;;
19754;SDS011;10036;47.812;9.274;2022-11-20T03:37:34;11.98;;;7.80;;
19754;SDS011;10036;47.812;9.274;2022-11-20T03:40:00;9.75;;;6.47;;
19754;SDS011;10036;47.812;9.274;2022-11-20T03:42:27;12.25;;;7.65;;
19754;SDS011;10036;47.812;9.274;2022-11-20T03:45:12;10.70;;;6.55;;
19754;SDS011;10036;47.812;9.274;2022-11-20T03:47:41;16.00;;;8.57;;
19754;SDS011;10036;47.812;9.274;2022-11-20T03:50:09;14.73;;;10.80;;
19754;SDS011;10036;47.812;9.274;2022-11-20T03:52:38;14.10;;;9.40;;
19754;SDS011;10036;47.812;9.274;2022-11-20T03:55:05;11.25;;;7.68;;
19754;SDS011;10036;47.812;9.274;2022-11-20T03:57:33;9.75;;;7.10;;
19754;SDS011;10036;47.812;9.274;2022-11-20T04:00:00;9.13;;;6.45;;
19754;SDS011;10036;47.812;9.274;2022-11-20T04:02:27;8.52;;;6.47;;
19754;SDS011;10036;47.812;9.274;2022-11-20T04:08:17;9.07;;;5.80;;
19754;SDS011;10036;47.812;9.274;2022-11-20T04:10:44;9.73;;;5.88;;
19754;SDS011;10036;47.812;9.274;2022-11-20T04:13:11;7.90;;;5.32;;
19754;SDS011;10036;47.812;9.274;2022-11-20T04:15:38;7.50;;;5.35;;
19754;SDS011;10036;47.812;9.274;2022-11-20T04:18:05;8.38;;;5.22;;
19754;SDS011;10036;47.812;9.274;2022-11-20T04:20:32;8.88;;;5.90;;
19754;SDS011;10036;47.812;9.274;2022-11-20T04:22:59;9.93;;;6.13;;
19754;SDS011;10036;47.812;9.274;2022-11-20T04:28:13;10.20;;;5.57;;
19754;SDS011;10036;47.812;9.274;2022-11-20T04:30:40;6.25;;;5.63;;
19754;SDS011;10036;47.812;9.274;2022-11-20T04:33:07;6.93;;;5.63;;
19754;SDS011;10036;47.812;9.274;2022-11-20T04:35:34;25.58;;;12.45;;
19754;SDS011;10036;47.812;9.274;2022-11-20T04:38:02;24.27;;;11.18;;
19754;SDS011;10036;47.812;9.274;2022-11-20T04:40:29;12.45;;;7.97;;
19754;SDS011;10036;47.812;9.274;2022-11-20T04:42:58;10.75;;;6.72;;
19754;SDS011;10036;47.812;9.274;2022-11-20T04:45:25;8.63;;;6.25;;
19754;SDS011;10036;47.812;9.274;2022-11-20T04:47:52;7.15;;;5.47;;
19754;SDS011;10036;47.812;9.274;2022-11-20T04:50:19;7.63;;;5.50;;
19754;SDS011;10036;47.812;9.274;2022-11-20T04:52:46;5.53;;;4.95;;
19754;SDS011;10036;47.812;9.274;2022-11-20T04:55:13;9.40;;;4.78;;
19754;SDS011;10036;47.812;9.274;2022-11-20T04:57:40;11.68;;;6.13;;
19754;SDS011;10036;47.812;9.274;2022-11-20T05:00:09;8.13;;;6.15;;
19754;SDS011;10036;47.812;9.274;2022-11-20T05:02:36;8.52;;;6.63;;
19754;SDS011;10036;47.812;9.274;2022-11-20T05:05:03;9.65;;;6.70;;
19754;SDS011;10036;47.812;9.274;2022-11-20T05:07:31;9.10;;;6.85;;
19754;SDS011;10036;47.812;9.274;2022-11-20T05:09:57;10.20;;;6.45;;
19754;SDS011;10036;47.812;9.274;2022-11-20T05:12:24;7.75;;;5.90;;
19754;SDS011;10036;47.812;9.274;2022-11-20T05:14:51;7.22;;;6.05;;
19754;SDS011;10036;47.812;9.274;2022-11-20T05:17:19;7.57;;;5.97;;
19754;SDS011;10036;47.812;9.274;2022-11-20T05:19:46;11.80;;;7.15;;
19754;SDS011;10036;47.812;9.274;2022-11-20T05:22:13;10.55;;;6.95;;
19754;SDS011;10036;47.812;9.274;2022-11-20T05:24:40;9.95;;;6.78;;
19754;SDS011;10036;47.812;9.274;2022-11-20T05:27:07;9.93;;;6.25;;
19754;SDS011;10036;47.812;9.274;2022-11-20T05:29:34;8.82;;;6.18;;
19754;SDS011;10036;47.812;9.274;2022-11-20T05:32:01;9.63;;;6.13;;
19754;SDS011;10036;47.812;9.274;2022-11-20T05:34:29;9.25;;;6.15;;
19754;SDS011;10036;47.812;9.274;2022-11-20T05:36:57;6.80;;;5.63;;
19754;SDS011;10036;47.812;9.274;2022-11-20T05:39:24;7.30;;;5.70;;
19754;SDS011;10036;47.812;9.274;2022-11-20T05:41:51;8.55;;;5.65;;
19754;SDS011;10036;47.812;9.274;2022-11-20T05:44:37;6.38;;;5.55;;
19754;SDS011;10036;47.812;9.274;2022-11-20T05:47:04;6.72;;;5.50;;
19754;SDS011;10036;47.812;9.274;2022-11-20T05:49:33;7.35;;;5.75;;
19754;SDS011;10036;47.812;9.274;2022-11-20T05:52:00;6.30;;;5.45;;
19754;SDS011;10036;47.812;9.274;2022-11-20T05:54:27;5.22;;;4.72;;
19754;SDS011;10036;47.812;9.274;2022-11-20T05:56:54;7.15;;;5.03;;
19754;SDS011;10036;47.812;9.274;2022-11-20T05:59:21;6.30;;;4.93;;
19754;SDS011;10036;47.812;9.274;2022-11-20T06:01:47;5.80;;;5.00;;
19754;SDS011;10036;47.812;9.274;2022-11-20T06:04:14;6.38;;;4.78;;
19754;SDS011;10036;47.812;9.274;2022-11-20T06:06:43;4.90;;;4.35;;
19754;SDS011;10036;47.812;9.274;2022-11-20T06:09:10;6.50;;;4.50;;
19754;SDS011;10036;47.812;9.274;2022-11-20T06:11:36;6.05;;;4.70;;
19754;SDS011;10036;47.812;9.274;2022-11-20T06:14:03;6.32;;;4.50;;
19754;SDS011;10036;47.812;9.274;2022-11-20T06:16:30;6.30;;;4.50;;
19754;SDS011;10036;47.812;9.274;2022-11-20T06:18:57;6.38;;;4.35;;
19754;SDS011;10036;47.812;9.274;2022-11-20T06:21:24;5.97;;;4.50;;
19754;SDS011;10036;47.812;9.274;2022-11-20T06:23:53;5.65;;;4.28;;
19754;SDS011;10036;47.812;9.274;2022-11-20T06:26:20;4.97;;;4.20;;
19754;SDS011;10036;47.812;9.274;2022-11-20T06:28:48;4.78;;;4.13;;
19754;SDS011;10036;47.812;9.274;2022-11-20T06:31:17;6.22;;;4.72;;
19754;SDS011;10036;47.812;9.274;2022-11-20T06:33:45;4.95;;;3.92;;
19754;SDS011;10036;47.812;9.274;2022-11-20T06:36:13;5.80;;;4.45;;
19754;SDS011;10036;47.812;9.274;2022-11-20T06:38:42;5.05;;;4.55;;
19754;SDS011;10036;47.812;9.274;2022-11-20T06:41:12;4.95;;;4.47;;
19754;SDS011;10036;47.812;9.274;2022-11-20T06:43:39;6.32;;;4.22;;
19754;SDS011;10036;47.812;9.274;2022-11-20T06:46:07;3.92;;;3.47;;
19754;SDS011;10036;47.812;9.274;2022-11-20T06:48:36;4.90;;;4.20;;
19754;SDS011;10036;47.812;9.274;2022-11-20T06:51:03;6.10;;;4.13;;
19754;SDS011;10036;47.812;9.274;2022-11-20T06:53:31;5.72;;;4.22;;
19754;SDS011;10036;47.812;9.274;2022-11-20T06:55:58;6.80;;;4.20;;
19754;SDS011;10036;47.812;9.274;2022-11-20T06:58:27;4.97;;;4.47;;
19754;SDS011;10036;47.812;9.274;2022-11-20T07:00:57;4.78;;;4.28;;
19754;SDS011;10036;47.812;9.274;2022-11-20T07:03:25;5.53;;;3.80;;
19754;SDS011;10036;47.812;9.274;2022-11-20T07:05:53;5.10;;;4.05;;
19754;SDS011;10036;47.812;9.274;2022-11-20T07:08:20;5.70;;;4.13;;
19754;SDS011;10036;47.812;9.274;2022-11-20T07:10:47;5.22;;;4.05;;
19754;SDS011;10036;47.812;9.274;2022-11-20T07:13:14;4.43;;;3.38;;
19754;SDS011;10036;47.812;9.274;2022-11-20T07:15:43;4.70;;;4.15;;
19754;SDS011;10036;47.812;9.274;2022-11-20T07:18:09;6.75;;;3.60;;
19754;SDS011;10036;47.812;9.274;2022-11-20T07:20:36;5.07;;;3.88;;
19754;SDS011;10036;47.812;9.274;2022-11-20T07:23:03;4.93;;;3.75;;
19754;SDS011;10036;47.812;9.274;2022-11-20T07:25:30;7.65;;;4.53;;
19754;SDS011;10036;47.812;9.274;2022-11-20T07:27:57;4.80;;;3.85;;
19754;SDS011;10036;47.812;9.274;2022-11-20T07:30:25;4.22;;;3.60;;
19754;SDS011;10036;47.812;9.274;2022-11-20T07:32:53;4.60;;;4.03;;
19754;SDS011;10036;47.812;9.274;2022-11-20T07:38:28;4.72;;;4.28;;
19754;SDS011;10036;47.812;9.274;2022-11-20T07:40:55;7.28;;;4.57;;
19754;SDS011;10036;47.812;9.274;2022-11-20T07:43:23;7.03;;;5.03;;
19754;SDS011;10036;47.812;9.274;2022-11-20T07:49:13;5.07;;;4.47;;
19754;SDS011;10036;47.812;9.274;2022-11-20T07:51:40;6.25;;;4.65;;
19754;SDS011;10036;47.812;9.274;2022-11-20T07:54:07;4.85;;;3.53;;
19754;SDS011;10036;47.812;9.274;2022-11-20T07:56:34;3.50;;;2.90;;
19754;SDS011;10036;47.812;9.274;2022-11-20T07:59:01;5.57;;;2.92;;
19754;SDS011;10036;47.812;9.274;2022-11-20T08:01:29;2.88;;;2.40;;
19754;SDS011;10036;47.812;9.274;2022-11-20T08:03:56;2.83;;;2.40;;
19754;SDS011;10036;47.812;9.274;2022-11-20T08:06:24;3.45;;;2.42;;
19754;SDS011;10036;47.812;9.274;2022-11-20T08:08:51;2.58;;;2.38;;
19754;SDS011;10036;47.812;9.274;2022-11-20T08:11:18;2.55;;;2.35;;
19754;SDS011;10036;47.812;9.274;2022-11-20T08:14:02;4.35;;;2.30;;
19754;SDS011;10036;47.812;9.274;2022-11-20T08:16:37;3.08;;;2.30;;
19754;SDS011;10036;47.812;9.274;2022-11-20T08:19:05;2.30;;;2.20;;
19754;SDS011;10036;47.812;9.274;2022-11-20T08:21:33;2.35;;;2.05;;
19754;SDS011;10036;47.812;9.274;2022-11-20T08:24:00;2.50;;;2.22;;
19754;SDS011;10036;47.812;9.274;2022-11-20T08:26:27;2.00;;;1.90;;
19754;SDS011;10036;47.812;9.274;2022-11-20T08:28:54;2.38;;;1.70;;
19754;SDS011;10036;47.812;9.274;2022-11-20T08:31:22;2.45;;;1.90;;
19754;SDS011;10036;47.812;9.274;2022-11-20T08:33:51;3.83;;;2.08;;
19754;SDS011;10036;47.812;9.274;2022-11-20T08:36:18;5.28;;;2.20;;
19754;SDS011;10036;47.812;9.274;2022-11-20T08:38:48;2.42;;;2.13;;
19754;SDS011;10036;47.812;9.274;2022-11-20T08:41:15;2.75;;;1.85;;
19754;SDS011;10036;47.812;9.274;2022-11-20T08:43:52;2.00;;;1.90;;
19754;SDS011;10036;47.812;9.274;2022-11-20T08:46:21;4.07;;;2.75;;
19754;SDS011;10036;47.812;9.274;2022-11-20T08:48:48;3.08;;;2.40;;
19754;SDS011;10036;47.812;9.274;2022-11-20T08:51:15;2.30;;;2.10;;
19754;SDS011;10036;47.812;9.274;2022-11-20T08:53:42;2.53;;;2.17;;
19754;SDS011;10036;47.812;9.274;2022-11-20T08:56:11;2.20;;;2.00;;
19754;SDS011;10036;47.812;9.274;2022-11-20T08:58:38;2.08;;;1.98;;
19754;SDS011;10036;47.812;9.274;2022-11-20T09:01:05;2.92;;;2.10;;
19754;SDS011;10036;47.812;9.274;2022-11-20T09:03:32;1.88;;;1.77;;
19754;SDS011;10036;47.812;9.274;2022-11-20T09:06:00;6.35;;;1.80;;
19754;SDS011;10036;47.812;9.274;2022-11-20T09:08:28;2.85;;;1.73;;
19754;SDS011;10036;47.812;9.274;2022-11-20T09:10:56;1.73;;;1.52;;
19754;SDS011;10036;47.812;9.274;2022-11-20T09:13:26;1.50;;;1.40;;
19754;SDS011;10036;47.812;9.274;2022-11-20T09:15:54;1.58;;;1.48;;
19754;SDS011;10036;47.812;9.274;2022-11-20T09:18:21;1.70;;;1.60;;
19754;SDS011;10036;47.812;9.274;2022-11-20T09:20:48;1.77;;;1.67;;
19754;SDS011;10036;47.812;9.274;2022-11-20T09:23:15;1.88;;;1.77;;
19754;SDS011;10036;47.812;9.274;2022-11-20T09:25:43;1.83;;;1.73;;
19754;SDS011;10036;47.812;9.274;2022-11-20T09:28:10;2.17;;;1.80;;
19754;SDS011;10036;47.812;9.274;2022-11-20T09:30:38;2.35;;;2.00;;
19754;SDS011;10036;47.812;9.274;2022-11-20T09:33:05;2.08;;;1.98;;
19754;SDS011;10036;47.812;9.274;2022-11-20T09:35:32;1.98;;;1.85;;
19754;SDS011;10036;47.812;9.274;2022-11-20T09:38:03;1.90;;;1.80;;
19754;SDS011;10036;47.812;9.274;2022-11-20T09:40:31;1.80;;;1.70;;
19754;SDS011;10036;47.812;9.274;2022-11-20T09:43:01;2.45;;;2.25;;
19754;SDS011;10036;47.812;9.274;2022-11-20T09:45:41;2.30;;;2.10;;
19754;SDS011;10036;47.812;9.274;2022-11-20T09:48:20;2.65;;;2.08;;
19754;SDS011;10036;47.812;9.274;2022-11-20T09:51:00;2.30;;;2.10;;
19754;SDS011;10036;47.812;9.274;2022-11-20T09:53:38;3.10;;;2.10;;
19754;SDS011;10036;47.812;9.274;2022-11-20T09:56:12;2.85;;;2.50;;
19754;SDS011;10036;47.812;9.274;2022-11-20T09:58:41;2.30;;;2.10;;
19754;SDS011;10036;47.812;9.274;2022-11-20T10:01:14;2.95;;;2.00;;
19754;SDS011;10036;47.812;9.274;2022-11-20T10:03:45;2.30;;;2.10;;
19754;SDS011;10036;47.812;9.274;2022-11-20T10:06:21;2.03;;;1.73;;
19754;SDS011;10036;47.812;9.274;2022-11-20T10:11:27;2.45;;;2.05;;
19754;SDS011;10036;47.812;9.274;2022-11-20T10:14:04;2.45;;;2.00;;
19754;SDS011;10036;47.812;9.274;2022-11-20T10:16:43;3.30;;;1.90;;
19754;SDS011;10036;47.812;9.274;2022-11-20T10:19:24;2.95;;;1.95;;
19754;SDS011;10036;47.812;9.274;2022-11-20T10:22:02;1.80;;;1.70;;
19754;SDS011;10036;47.812;9.274;2022-11-20T10:27:47;2.67;;;1.90;;
19754;SDS011;10036;47.812;9.274;2022-11-20T10:30:29;2.03;;;1.92;;
19754;SDS011;10036;47.812;9.274;2022-11-20T10:32:59;2.20;;;2.00;;
19754;SDS011;10036;47.812;9.274;2022-11-20T10:38:46;1.63;;;1.52;;
19754;SDS011;10036;47.812;9.274;2022-11-20T10:41:20;1.83;;;1.73;;
19754;SDS011;10036;47.812;9.274;2022-11-20T10:43:51;2.83;;;1.90;;
19754;SDS011;10036;47.812;9.274;2022-11-20T10:46:23;1.95;;;1.70;;
19754;SDS011;10036;47.812;9.274;2022-11-20T10:48:53;1.80;;;1.70;;
19754;SDS011;10036;47.812;9.274;2022-11-20T10:51:23;4.47;;;1.80;;
19754;SDS011;10036;47.812;9.274;2022-11-20T10:54:07;1.77;;;1.60;;
19754;SDS011;10036;47.812;9.274;2022-11-20T10:56:42;1.95;;;1.73;;
19754;SDS011;10036;47.812;9.274;2022-11-20T11:02:33;2.00;;;1.60;;
19754;SDS011;10036;47.812;9.274;2022-11-20T11:05:10;2.90;;;1.80;;
19754;SDS011;10036;47.812;9.274;2022-11-20T11:07:43;1.85;;;1.67;;
19754;SDS011;10036;47.812;9.274;2022-11-20T11:10:14;2.00;;;1.90;;
19754;SDS011;10036;47.812;9.274;2022-11-20T11:12:44;3.42;;;1.90;;
19754;SDS011;10036;47.812;9.274;2022-11-20T11:15:13;1.95;;;1.83;;
19754;SDS011;10036;47.812;9.274;2022-11-20T11:17:50;1.80;;;1.70;;
19754;SDS011;10036;47.812;9.274;2022-11-20T11:20:19;2.13;;;1.90;;
19754;SDS011;10036;47.812;9.274;2022-11-20T11:22:47;3.17;;;1.95;;
19754;SDS011;10036;47.812;9.274;2022-11-20T11:28:38;5.38;;;1.90;;
19754;SDS011;10036;47.812;9.274;2022-11-20T11:31:05;3.45;;;1.90;;
19754;SDS011;10036;47.812;9.274;2022-11-20T11:33:32;1.85;;;1.75;;
19754;SDS011;10036;47.812;9.274;2022-11-20T11:36:01;2.17;;;1.60;;
19754;SDS011;10036;47.812;9.274;2022-11-20T11:38:30;1.55;;;1.45;;
19754;SDS011;10036;47.812;9.274;2022-11-20T11:41:01;2.45;;;1.60;;
19754;SDS011;10036;47.812;9.274;2022-11-20T11:43:30;2.25;;;2.00;;
19754;SDS011;10036;47.812;9.274;2022-11-20T11:46:30;1.95;;;1.85;;
19754;SDS011;10036;47.812;9.274;2022-11-20T11:48:59;2.55;;;1.88;;
19754;SDS011;10036;47.812;9.274;2022-11-20T11:51:30;2.30;;;1.73;;
19754;SDS011;10036;47.812;9.274;2022-11-20T11:54:01;2.20;;;1.90;;
19754;SDS011;10036;47.812;9.274;2022-11-20T11:56:37;3.33;;;1.65;;
19754;SDS011;10036;47.812;9.274;2022-11-20T11:59:05;2.53;;;1.60;;
19754;SDS011;10036;47.812;9.274;2022-11-20T12:01:37;1.65;;;1.55;;
19754;SDS011;10036;47.812;9.274;2022-11-20T12:04:14;2.78;;;1.73;;
19754;SDS011;10036;47.812;9.274;2022-11-20T12:06:50;2.22;;;1.88;;
19754;SDS011;10036;47.812;9.274;2022-11-20T12:09:23;1.80;;;1.50;;
19754;SDS011;10036;47.812;9.274;2022-11-20T12:11:55;1.98;;;1.67;;
19754;SDS011;10036;47.812;9.274;2022-11-20T12:14:30;1.80;;;1.70;;
19754;SDS011;10036;47.812;9.274;2022-11-20T12:17:01;1.65;;;1.55;;
19754;SDS011;10036;47.812;9.274;2022-11-20T12:19:28;2.05;;;1.80;;
19754;SDS011;10036;47.812;9.274;2022-11-20T12:22:00;1.67;;;1.58;;
19754;SDS011;10036;47.812;9.274;2022-11-20T12:24:39;1.50;;;1.40;;
19754;SDS011;10036;47.812;9.274;2022-11-20T12:27:20;2.33;;;1.77;;
19754;SDS011;10036;47.812;9.274;2022-11-20T12:30:07;1.85;;;1.75;;
19754;SDS011;10036;47.812;9.274;2022-11-20T12:41:27;1.60;;;1.50;;
19754;SDS011;10036;47.812;9.274;2022-11-20T12:44:32;2.20;;;1.38;;
19754;SDS011;10036;47.812;9.274;2022-11-20T12:47:28;1.58;;;1.48;;
19754;SDS011;10036;47.812;9.274;2022-11-20T12:50:06;2.25;;;1.52;;
19754;SDS011;10036;47.812;9.274;2022-11-20T12:52:42;1.70;;;1.60;;
19754;SDS011;10036;47.812;9.274;2022-11-20T12:55:23;2.38;;;1.58;;
19754;SDS011;10036;47.812;9.274;2022-11-20T12:58:00;1.75;;;1.38;;
19754;SDS011;10036;47.812;9.274;2022-11-20T13:00:36;2.55;;;1.67;;
19754;SDS011;10036;47.812;9.274;2022-11-20T13:06:12;1.75;;;1.65;;
19754;SDS011;10036;47.812;9.274;2022-11-20T13:08:43;1.60;;;1.50;;
19754;SDS011;10036;47.812;9.274;2022-11-20T13:11:18;2.95;;;1.70;;
19754;SDS011;10036;47.812;9.274;2022-11-20T13:14:06;2.65;;;1.90;;
19754;SDS011;10036;47.812;9.274;2022-11-20T13:16:41;2.25;;;1.60;;
19754;SDS011;10036;47.812;9.274;2022-11-20T13:19:16;2.53;;;1.73;;
19754;SDS011;10036;47.812;9.274;2022-11-20T13:21:44;1.65;;;1.55;;
19754;SDS011;10036;47.812;9.274;2022-11-20T13:24:21;1.85;;;1.70;;
19754;SDS011;10036;47.812;9.274;2022-11-20T13:27:03;4.25;;;1.63;;
19754;SDS011;10036;47.812;9.274;2022-11-20T13:29:45;2.35;;;1.65;;
19754;SDS011;10036;47.812;9.274;2022-11-20T13:32:24;2.75;;;1.40;;
19754;SDS011;10036;47.812;9.274;2022-11-20T13:34:51;1.80;;;1.70;;
19754;SDS011;10036;47.812;9.274;2022-11-20T13:37:24;1.90;;;1.50;;
19754;SDS011;10036;47.812;9.274;2022-11-20T13:40:04;3.33;;;1.50;;
19754;SDS011;10036;47.812;9.274;2022-11-20T13:42:39;1.60;;;1.50;;
19754;SDS011;10036;47.812;9.274;2022-11-20T13:45:11;1.90;;;1.45;;
19754;SDS011;10036;47.812;9.274;2022-11-20T13:47:47;2.08;;;1.55;;
19754;SDS011;10036;47.812;9.274;2022-11-20T13:50:16;1.40;;;1.30;;
19754;SDS011;10036;47.812;9.274;2022-11-20T13:52:45;1.55;;;1.40;;
19754;SDS011;10036;47.812;9.274;2022-11-20T13:55:22;1.63;;;1.38;;
19754;SDS011;10036;47.812;9.274;2022-11-20T13:57:57;2.10;;;1.50;;
19754;SDS011;10036;47.812;9.274;2022-11-20T14:00:32;1.73;;;1.50;;
19754;SDS011;10036;47.812;9.274;2022-11-20T14:03:05;1.60;;;1.48;;
19754;SDS011;10036;47.812;9.274;2022-11-20T14:05:38;2.70;;;1.67;;
19754;SDS011;10036;47.812;9.274;2022-11-20T14:08:11;2.38;;;2.00;;
19754;SDS011;10036;47.812;9.274;2022-11-20T14:10:43;2.83;;;1.50;;
19754;SDS011;10036;47.812;9.274;2022-11-20T14:13:12;1.73;;;1.38;;
19754;SDS011;10036;47.812;9.274;2022-11-20T14:15:43;1.40;;;1.27;;
19754;SDS011;10036;47.812;9.274;2022-11-20T14:18:14;1.88;;;1.60;;
19754;SDS011;10036;47.812;9.274;2022-11-20T14:20:45;2.75;;;1.52;;
19754;SDS011;10036;47.812;9.274;2022-11-20T14:23:22;1.38;;;1.30;;
19754;SDS011;10036;47.812;9.274;2022-11-20T14:25:50;2.67;;;1.35;;
19754;SDS011;10036;47.812;9.274;2022-11-20T14:28:20;2.75;;;1.52;;
19754;SDS011;10036;47.812;9.274;2022-11-20T14:30:51;1.80;;;1.35;;
19754;SDS011;10036;47.812;9.274;2022-11-20T14:33:18;1.80;;;1.50;;
19754;SDS011;10036;47.812;9.274;2022-11-20T14:35:50;1.50;;;1.40;;
19754;SDS011;10036;47.812;9.274;2022-11-20T14:38:20;3.90;;;1.40;;
19754;SDS011;10036;47.812;9.274;2022-11-20T14:40:50;2.60;;;1.30;;
19754;SDS011;10036;47.812;9.274;2022-11-20T14:43:18;1.42;;;1.33;;
19754;SDS011;10036;47.812;9.274;2022-11-20T14:45:52;1.73;;;1.30;;
19754;SDS011;10036;47.812;9.274;2022-11-20T14:48:25;1.30;;;1.20;;
19754;SDS011;10036;47.812;9.274;2022-11-20T14:50:56;1.45;;;1.30;;
19754;SDS011;10036;47.812;9.274;2022-11-20T14:53:24;2.65;;;1.60;;
19754;SDS011;10036;47.812;9.274;2022-11-20T14:55:55;2.05;;;1.52;;
19754;SDS011;10036;47.812;9.274;2022-11-20T14:58:25;2.47;;;1.40;;
19754;SDS011;10036;47.812;9.274;2022-11-20T15:00:53;1.50;;;1.40;;
19754;SDS011;10036;47.812;9.274;2022-11-20T15:03:21;3.72;;;1.63;;
19754;SDS011;10036;47.812;9.274;2022-11-20T15:05:50;1.70;;;1.60;;
19754;SDS011;10036;47.812;9.274;2022-11-20T15:08:17;1.63;;;1.52;;
19754;SDS011;10036;47.812;9.274;2022-11-20T15:10:45;2.70;;;1.52;;
19754;SDS011;10036;47.812;9.274;2022-11-20T15:13:14;4.25;;;1.80;;
19754;SDS011;10036;47.812;9.274;2022-11-20T15:15:45;2.65;;;1.40;;
19754;SDS011;10036;47.812;9.274;2022-11-20T15:18:14;1.63;;;1.52;;
19754;SDS011;10036;47.812;9.274;2022-11-20T15:20:43;1.70;;;1.60;;
19754;SDS011;10036;47.812;9.274;2022-11-20T15:23:11;1.65;;;1.55;;
19754;SDS011;10036;47.812;9.274;2022-11-20T15:25:39;4.50;;;1.83;;
19754;SDS011;10036;47.812;9.274;2022-11-20T15:28:10;2.13;;;2.03;;
19754;SDS011;10036;47.812;9.274;2022-11-20T15:30:41;3.88;;;2.70;;
19754;SDS011;10036;47.812;9.274;2022-11-20T15:33:10;2.83;;;2.60;;
19754;SDS011;10036;47.812;9.274;2022-11-20T15:35:37;3.08;;;2.25;;
19754;SDS011;10036;47.812;9.274;2022-11-20T15:38:04;3.50;;;2.30;;
19754;SDS011;10036;47.812;9.274;2022-11-20T15:40:31;2.65;;;2.15;;
19754;SDS011;10036;47.812;9.274;2022-11-20T15:42:58;1.85;;;1.75;;
19754;SDS011;10036;47.812;9.274;2022-11-20T15:45:33;2.38;;;1.80;;
19754;SDS011;10036;47.812;9.274;2022-11-20T15:48:04;2.50;;;2.10;;
19754;SDS011;10036;47.812;9.274;2022-11-20T15:50:38;2.33;;;2.13;;
19754;SDS011;10036;47.812;9.274;2022-11-20T15:53:15;2.92;;;2.30;;